createdAt,value
2018-11-10T00:01:38.167Z,64.70
2018-11-10T00:04:06.915Z,64.60
2018-11-10T00:06:35.637Z,64.60
2018-11-10T00:09:05.673Z,64.60
2018-11-10T00:11:34.400Z,64.70
2018-11-10T00:14:03.196Z,64.70
2018-11-10T00:16:31.955Z,64.60
2018-11-10T00:19:00.652Z,64.60
2018-11-10T00:21:29.380Z,64.60
2018-11-10T00:23:58.336Z,64.50
2018-11-10T00:26:27.064Z,64.50
2018-11-10T00:28:55.804Z,64.50
2018-11-10T00:31:24.536Z,64.40
2018-11-10T00:33:53.257Z,64.50
2018-11-10T00:36:21.985Z,64.40
2018-11-10T00:38:50.867Z,64.40
2018-11-10T00:41:19.597Z,64.40
2018-11-10T00:43:48.344Z,64.40
2018-11-10T00:46:17.087Z,64.30
2018-11-10T00:48:45.812Z,64.40
2018-11-10T00:51:14.552Z,64.40
2018-11-10T00:53:43.277Z,64.40
2018-11-10T00:56:12.004Z,64.40
2018-11-10T00:58:41.528Z,64.30
2018-11-10T01:01:10.271Z,64.30
2018-11-10T01:03:38.995Z,64.30
2018-11-10T01:06:07.732Z,64.20
2018-11-10T01:08:36.456Z,64.10
2018-11-10T01:11:05.368Z,64.10
2018-11-10T01:13:34.092Z,64.10
2018-11-10T01:16:02.828Z,64.00
2018-11-10T01:18:31.556Z,64.10
2018-11-10T01:21:00.285Z,64.10
2018-11-10T01:23:29.026Z,64.10
2018-11-10T01:25:57.760Z,64.10
2018-11-10T01:28:26.475Z,64.00
2018-11-10T01:30:55.204Z,64.00
2018-11-10T01:33:23.929Z,63.80
2018-11-10T01:35:52.659Z,63.90
2018-11-10T01:38:21.380Z,64.00
2018-11-10T01:40:50.104Z,63.90
2018-11-10T01:43:18.852Z,63.80
2018-11-10T01:45:47.576Z,63.90
2018-11-10T01:48:16.317Z,63.70
2018-11-10T01:50:45.031Z,63.70
2018-11-10T01:53:13.773Z,63.60
2018-11-10T01:55:42.492Z,63.60
2018-11-10T01:58:11.226Z,63.60
2018-11-10T02:00:39.948Z,63.60
2018-11-10T02:03:08.684Z,63.60
2018-11-10T02:05:37.408Z,63.60
2018-11-10T02:08:06.564Z,64.40
2018-11-10T02:10:35.289Z,63.60
2018-11-10T02:13:04.020Z,64.40
2018-11-10T02:15:32.741Z,63.60
2018-11-10T02:18:01.476Z,63.60
2018-11-10T02:20:30.196Z,63.60
2018-11-10T02:22:58.928Z,63.50
2018-11-10T02:25:27.653Z,63.60
2018-11-10T02:27:56.380Z,63.50
2018-11-10T02:30:25.105Z,63.50
2018-11-10T02:32:53.832Z,63.50
2018-11-10T02:35:22.564Z,63.40
2018-11-10T02:37:51.293Z,63.30
2018-11-10T02:40:20.020Z,63.30
2018-11-10T02:42:48.752Z,63.30
2018-11-10T02:45:17.475Z,63.30
2018-11-10T02:47:46.204Z,63.30
2018-11-10T02:50:14.956Z,63.30
2018-11-10T02:52:43.691Z,63.20
2018-11-10T02:55:12.621Z,63.20
2018-11-10T02:57:41.940Z,63.20
2018-11-10T03:00:12.032Z,63.20
2018-11-10T03:02:40.762Z,63.20
2018-11-10T03:05:10.021Z,63.20
2018-11-10T03:07:39.015Z,63.20
2018-11-10T03:10:08.825Z,63.20
2018-11-10T03:12:38.232Z,63.10
2018-11-10T03:15:07.740Z,63.00
2018-11-10T03:17:36.633Z,63.00
2018-11-10T03:20:07.110Z,63.10
2018-11-10T03:22:35.831Z,63.10
2018-11-10T03:25:04.858Z,63.00
2018-11-10T03:27:33.583Z,63.00
2018-11-10T03:30:02.328Z,63.10
2018-11-10T03:32:31.061Z,63.00
2018-11-10T03:34:59.779Z,63.40
2018-11-10T03:37:28.513Z,62.90
2018-11-10T03:39:57.232Z,62.90
2018-11-10T03:42:25.968Z,62.90
2018-11-10T03:44:54.692Z,63.00
2018-11-10T03:47:23.436Z,63.00
2018-11-10T03:49:52.165Z,62.90
2018-11-10T03:52:20.916Z,62.90
2018-11-10T03:54:49.643Z,62.90
2018-11-10T03:57:18.365Z,62.90
2018-11-10T03:59:47.093Z,62.90
2018-11-10T04:02:15.825Z,62.80
2018-11-10T04:04:44.551Z,62.80
2018-11-10T04:07:13.316Z,62.80
2018-11-10T04:09:42.332Z,62.80
2018-11-10T04:12:11.048Z,62.80
2018-11-10T04:14:39.992Z,62.90
2018-11-10T04:17:08.884Z,62.60
2018-11-10T04:19:37.692Z,62.70
2018-11-10T04:22:06.569Z,62.70
2018-11-10T04:24:36.008Z,63.20
2018-11-10T04:27:04.733Z,62.60
2018-11-10T04:29:33.463Z,62.60
2018-11-10T04:32:02.207Z,62.60
2018-11-10T04:34:30.949Z,62.50
2018-11-10T04:36:59.729Z,62.40
2018-11-10T04:39:28.459Z,62.40
2018-11-10T04:41:57.188Z,63.30
2018-11-10T04:44:25.915Z,62.50
2018-11-10T04:46:54.647Z,62.50
2018-11-10T04:49:23.368Z,62.30
2018-11-10T04:51:52.104Z,62.50
2018-11-10T04:54:20.827Z,62.40
2018-11-10T04:56:49.552Z,62.20
2018-11-10T04:59:18.284Z,62.40
2018-11-10T05:01:47.008Z,62.40
2018-11-10T05:04:15.798Z,62.40
2018-11-10T05:06:44.520Z,62.50
2018-11-10T05:09:13.252Z,62.50
2018-11-10T05:11:41.987Z,62.70
2018-11-10T05:14:10.719Z,62.60
2018-11-10T05:16:39.440Z,62.70
2018-11-10T05:19:08.200Z,62.70
2018-11-10T05:21:36.964Z,62.70
2018-11-10T05:24:05.917Z,62.60
2018-11-10T05:26:34.711Z,62.70
2018-11-10T05:29:04.440Z,62.70
2018-11-10T05:31:33.160Z,62.70
2018-11-10T05:34:02.011Z,62.60
2018-11-10T05:36:30.695Z,62.70
2018-11-10T05:38:59.428Z,62.70
2018-11-10T05:41:28.327Z,62.70
2018-11-10T05:43:57.048Z,62.70
2018-11-10T05:46:25.769Z,62.70
2018-11-10T05:48:54.504Z,62.60
2018-11-10T05:51:23.237Z,62.60
2018-11-10T05:53:52.392Z,62.50
2018-11-10T05:56:21.111Z,62.50
2018-11-10T05:58:49.848Z,62.50
2018-11-10T06:01:18.584Z,62.50
2018-11-10T06:03:47.337Z,61.90
2018-11-10T06:06:16.084Z,62.40
2018-11-10T06:08:44.799Z,62.30
2018-11-10T06:11:13.536Z,62.30
2018-11-10T06:13:42.260Z,61.90
2018-11-10T06:16:11.033Z,61.90
2018-11-10T06:18:40.041Z,61.90
2018-11-10T06:21:08.724Z,62.20
2018-11-10T06:23:37.468Z,62.20
2018-11-10T06:26:06.258Z,62.20
2018-11-10T06:28:34.916Z,62.30
2018-11-10T06:31:03.672Z,62.30
2018-11-10T06:33:32.400Z,62.40
2018-11-10T06:36:01.131Z,62.40
2018-11-10T06:38:29.880Z,62.40
2018-11-10T06:40:58.604Z,62.30
2018-11-10T06:43:27.340Z,62.20
2018-11-10T06:45:56.061Z,62.30
2018-11-10T06:48:24.798Z,62.40
2018-11-10T06:50:53.520Z,62.10
2018-11-10T06:53:22.256Z,62.10
2018-11-10T06:55:50.988Z,62.50
2018-11-10T06:58:19.716Z,62.50
2018-11-10T07:00:48.443Z,62.70
2018-11-10T07:03:17.232Z,63.30
2018-11-10T07:05:45.904Z,63.70
2018-11-10T07:08:14.631Z,64.10
2018-11-10T07:10:43.369Z,65.10
2018-11-10T07:13:12.096Z,64.60
2018-11-10T07:15:40.824Z,64.70
2018-11-10T07:18:09.711Z,64.70
2018-11-10T07:20:38.277Z,65.00
2018-11-10T07:23:07.004Z,65.10
2018-11-10T07:25:35.803Z,65.10
2018-11-10T07:28:04.687Z,65.30
2018-11-10T07:30:33.421Z,65.20
2018-11-10T07:33:02.152Z,65.40
2018-11-10T07:35:30.876Z,65.50
2018-11-10T07:37:59.592Z,65.60
2018-11-10T07:40:28.331Z,65.70
2018-11-10T07:42:57.051Z,66.00
2018-11-10T07:45:25.782Z,66.10
2018-11-10T07:47:54.508Z,66.10
2018-11-10T07:50:23.264Z,66.00
2018-11-10T07:52:51.989Z,66.10
2018-11-10T07:55:20.726Z,66.40
2018-11-10T07:57:49.516Z,66.60
2018-11-10T08:00:18.748Z,66.70
2018-11-10T08:02:47.472Z,66.60
2018-11-10T08:05:16.662Z,66.70
2018-11-10T08:07:45.521Z,66.70
2018-11-10T08:10:14.935Z,66.50
2018-11-10T08:12:44.243Z,66.40
2018-11-10T08:15:16.808Z,65.80
2018-11-10T08:17:45.533Z,65.50
2018-11-10T08:20:14.501Z,65.40
2018-11-10T08:22:43.436Z,65.50
2018-11-10T08:25:13.463Z,65.40
2018-11-10T08:27:42.347Z,65.70
2018-11-10T08:30:12.401Z,65.40
2018-11-10T08:32:41.507Z,65.30
2018-11-10T08:35:11.414Z,65.40
2018-11-10T08:37:40.153Z,64.70
2018-11-10T08:40:12.311Z,64.30
2018-11-10T08:42:41.047Z,64.00
2018-11-10T08:45:11.072Z,64.80
2018-11-10T08:47:40.124Z,65.10
2018-11-10T08:50:09.779Z,63.80
2018-11-10T08:52:38.672Z,64.50
2018-11-10T08:55:08.081Z,64.90
2018-11-10T08:57:36.869Z,65.30
2018-11-10T09:00:06.223Z,65.90
2018-11-10T09:02:34.948Z,66.20
2018-11-10T09:05:03.839Z,66.30
2018-11-10T09:07:32.584Z,66.40
2018-11-10T09:10:01.406Z,66.50
2018-11-10T09:12:30.084Z,66.50
2018-11-10T09:14:58.857Z,66.40
2018-11-10T09:17:27.538Z,66.50
2018-11-10T09:19:56.256Z,65.90
2018-11-10T09:22:25.000Z,65.40
2018-11-10T09:24:53.731Z,65.30
2018-11-10T09:27:22.457Z,65.10
2018-11-10T09:29:51.180Z,64.90
2018-11-10T09:32:19.911Z,64.70
2018-11-10T09:34:48.636Z,64.80
2018-11-10T09:37:17.377Z,64.40
2018-11-10T09:39:46.112Z,64.30
2018-11-10T09:42:14.874Z,64.30
2018-11-10T09:44:43.575Z,64.20
2018-11-10T09:47:12.295Z,64.10
2018-11-10T09:49:41.093Z,63.90
2018-11-10T09:52:09.840Z,63.50
2018-11-10T09:54:38.568Z,63.80
2018-11-10T09:57:07.951Z,63.70
2018-11-10T09:59:37.415Z,63.50
2018-11-10T10:02:07.368Z,63.50
2018-11-10T10:04:37.026Z,63.60
2018-11-10T10:07:06.656Z,63.20
2018-11-10T10:09:35.380Z,63.40
2018-11-10T10:12:04.133Z,63.10
2018-11-10T10:14:32.856Z,63.30
2018-11-10T10:17:01.596Z,63.30
2018-11-10T10:19:30.307Z,63.10
2018-11-10T10:21:59.095Z,63.50
2018-11-10T10:24:27.776Z,64.40
2018-11-10T10:26:56.509Z,64.40
2018-11-10T10:29:25.415Z,64.00
2018-11-10T10:31:54.168Z,63.30
2018-11-10T10:34:22.993Z,62.40
2018-11-10T10:36:51.623Z,61.50
2018-11-10T10:39:20.357Z,61.20
2018-11-10T10:41:49.501Z,61.30
2018-11-10T10:44:18.228Z,61.30
2018-11-10T10:46:46.957Z,61.70
2018-11-10T10:49:15.785Z,61.60
2018-11-10T10:51:44.420Z,61.20
2018-11-10T10:54:13.266Z,61.10
2018-11-10T10:56:41.992Z,61.50
2018-11-10T10:59:10.724Z,61.70
2018-11-10T11:01:44.861Z,61.90
2018-11-10T11:04:19.084Z,61.90
2018-11-10T11:06:47.812Z,61.90
2018-11-10T11:09:16.545Z,62.00
2018-11-10T11:11:45.263Z,61.90
2018-11-10T11:14:14.001Z,61.90
2018-11-10T11:16:42.724Z,61.80
2018-11-10T11:19:11.540Z,61.70
2018-11-10T11:21:40.262Z,61.60
2018-11-10T11:24:08.984Z,62.00
2018-11-10T11:26:37.716Z,62.00
2018-11-10T11:29:06.503Z,61.80
2018-11-10T11:31:35.232Z,61.80
2018-11-10T11:34:03.952Z,61.70
2018-11-10T11:36:32.676Z,62.00
2018-11-10T11:39:01.432Z,62.20
2018-11-10T11:41:30.363Z,62.30
2018-11-10T11:43:58.884Z,62.50
2018-11-10T11:46:27.612Z,62.60
2018-11-10T11:48:56.343Z,62.80
2018-11-10T11:51:25.069Z,62.90
2018-11-10T11:53:53.814Z,62.90
2018-11-10T11:56:22.540Z,62.90
2018-11-10T11:58:51.280Z,63.00
2018-11-10T12:01:20.008Z,62.90
2018-11-10T12:03:48.740Z,62.90
2018-11-10T12:06:17.468Z,62.90
2018-11-10T12:08:46.196Z,63.10
2018-11-10T12:11:14.952Z,63.10
2018-11-10T12:13:43.686Z,63.00
2018-11-10T12:16:12.404Z,63.10
2018-11-10T12:18:41.134Z,63.00
2018-11-10T12:21:09.852Z,63.10
2018-11-10T12:23:38.581Z,62.90
2018-11-10T12:26:07.345Z,62.70
2018-11-10T12:28:36.080Z,62.70
2018-11-10T12:31:05.252Z,62.70
2018-11-10T12:33:33.980Z,62.60
2018-11-10T12:36:02.704Z,62.70
2018-11-10T12:38:31.445Z,62.80
2018-11-10T12:41:00.424Z,62.80
2018-11-10T12:43:29.148Z,62.80
2018-11-10T12:45:57.872Z,63.00
2018-11-10T12:48:26.597Z,63.10
2018-11-10T12:50:55.332Z,63.30
2018-11-10T12:53:24.054Z,63.30
2018-11-10T12:55:52.784Z,63.40
2018-11-10T12:58:21.517Z,63.60
2018-11-10T13:00:50.254Z,63.70
2018-11-10T13:03:18.978Z,63.80
2018-11-10T13:05:47.715Z,63.80
2018-11-10T13:08:16.549Z,64.10
2018-11-10T13:10:45.194Z,64.10
2018-11-10T13:13:13.896Z,64.30
2018-11-10T13:15:42.619Z,64.40
2018-11-10T13:18:11.342Z,64.50
2018-11-10T13:20:40.076Z,64.60
2018-11-10T13:23:08.817Z,64.60
2018-11-10T13:25:37.569Z,64.80
2018-11-10T13:28:06.277Z,64.80
2018-11-10T13:30:35.013Z,64.80
2018-11-10T13:33:03.744Z,64.80
2018-11-10T13:35:32.468Z,64.80
2018-11-10T13:38:01.225Z,64.80
2018-11-10T13:40:29.927Z,64.80
2018-11-10T13:42:58.700Z,64.90
2018-11-10T13:45:27.386Z,64.90
2018-11-10T13:47:56.136Z,65.00
2018-11-10T13:50:24.909Z,65.10
2018-11-10T13:52:53.760Z,65.20
2018-11-10T13:55:22.521Z,65.20
2018-11-10T13:57:51.210Z,65.30
2018-11-10T14:00:19.944Z,65.40
2018-11-10T14:02:48.677Z,65.30
2018-11-10T14:05:17.419Z,65.20
2018-11-10T14:07:46.140Z,65.30
2018-11-10T14:10:15.716Z,65.40
2018-11-10T14:12:45.340Z,65.50
2018-11-10T14:15:14.040Z,65.30
2018-11-10T14:17:43.214Z,65.20
2018-11-10T14:20:14.455Z,65.20
2018-11-10T14:22:43.437Z,65.80
2018-11-10T14:25:13.355Z,66.00
2018-11-10T14:27:42.856Z,66.10
2018-11-10T14:30:13.397Z,66.20
2018-11-10T14:32:42.797Z,66.30
2018-11-10T14:35:12.817Z,66.40
2018-11-10T14:37:41.695Z,66.50
2018-11-10T14:40:12.107Z,66.50
2018-11-10T14:42:41.430Z,66.60
2018-11-10T14:45:11.765Z,66.50
2018-11-10T14:47:40.864Z,66.40
2018-11-10T14:50:10.570Z,67.20
2018-11-10T14:52:39.649Z,66.20
2018-11-10T14:55:08.980Z,66.20
2018-11-10T14:57:37.948Z,66.30
2018-11-10T15:00:10.553Z,66.40
2018-11-10T15:02:39.276Z,66.30
2018-11-10T15:05:08.724Z,66.40
2018-11-10T15:07:37.444Z,66.20
2018-11-10T15:10:07.776Z,65.90
2018-11-10T15:12:36.508Z,66.00
2018-11-10T15:15:06.699Z,66.10
2018-11-10T15:17:35.899Z,66.20
2018-11-10T15:20:05.416Z,66.30
2018-11-10T15:22:34.444Z,66.20
2018-11-10T15:25:03.261Z,66.20
2018-11-10T15:27:31.987Z,66.30
2018-11-10T15:30:00.713Z,66.40
2018-11-10T15:32:29.445Z,66.50
2018-11-10T15:34:58.250Z,66.90
2018-11-10T15:37:26.986Z,66.40
2018-11-10T15:39:55.702Z,66.60
2018-11-10T15:42:24.428Z,66.50
2018-11-10T15:44:53.239Z,66.80
2018-11-10T15:47:22.000Z,66.90
2018-11-10T15:49:53.436Z,67.00
2018-11-10T15:52:22.176Z,66.70
2018-11-10T15:54:50.907Z,66.50
2018-11-10T15:57:19.765Z,66.50
2018-11-10T15:59:48.428Z,66.60
2018-11-10T16:02:18.963Z,66.60
2018-11-10T16:04:47.687Z,66.80
2018-11-10T16:07:16.421Z,66.80
2018-11-10T16:09:45.148Z,66.80
2018-11-10T16:12:13.884Z,66.90
2018-11-10T16:14:42.608Z,66.80
2018-11-10T16:17:11.331Z,66.90
2018-11-10T16:19:40.104Z,66.90
2018-11-10T16:22:08.836Z,66.90
2018-11-10T16:24:37.560Z,67.00
2018-11-10T16:27:06.324Z,66.90
2018-11-10T16:29:35.060Z,66.80
2018-11-10T16:32:04.372Z,66.90
2018-11-10T16:34:33.097Z,66.80
2018-11-10T16:37:01.859Z,66.80
2018-11-10T16:39:30.578Z,67.60
2018-11-10T16:41:59.300Z,66.90
2018-11-10T16:44:28.093Z,66.80
2018-11-10T16:46:56.821Z,66.80
2018-11-10T16:49:25.584Z,66.70
2018-11-10T16:51:54.320Z,66.40
2018-11-10T16:54:23.204Z,66.50
2018-11-10T16:56:51.932Z,66.50
2018-11-10T16:59:20.660Z,66.70
2018-11-10T17:01:49.395Z,66.70
2018-11-10T17:04:18.137Z,66.60
2018-11-10T17:06:46.859Z,66.90
2018-11-10T17:09:15.585Z,66.90
2018-11-10T17:11:44.320Z,66.90
2018-11-10T17:14:13.052Z,67.00
2018-11-10T17:16:41.779Z,67.10
2018-11-10T17:19:10.681Z,67.10
2018-11-10T17:21:39.904Z,67.00
2018-11-10T17:24:08.505Z,66.60
2018-11-10T17:26:37.248Z,65.90
2018-11-10T17:29:05.979Z,65.40
2018-11-10T17:31:34.705Z,66.00
2018-11-10T17:34:03.556Z,65.30
2018-11-10T17:36:32.284Z,65.30
2018-11-10T17:39:01.082Z,65.40
2018-11-10T17:41:29.744Z,65.30
2018-11-10T17:43:58.485Z,65.20
2018-11-10T17:46:27.217Z,65.20
2018-11-10T17:48:55.947Z,65.20
2018-11-10T17:51:24.676Z,65.10
2018-11-10T17:53:53.421Z,65.10
2018-11-10T17:56:22.145Z,65.00
2018-11-10T17:58:51.668Z,65.00
2018-11-10T18:01:20.416Z,64.80
2018-11-10T18:03:49.173Z,64.80
2018-11-10T18:06:17.987Z,64.70
2018-11-10T18:08:46.731Z,64.60
2018-11-10T18:11:15.460Z,64.30
2018-11-10T18:13:45.665Z,64.90
2018-11-10T18:16:14.379Z,65.00
2018-11-10T18:18:43.130Z,65.20
2018-11-10T18:21:11.844Z,65.40
2018-11-10T18:23:40.580Z,65.40
2018-11-10T18:26:09.309Z,65.40
2018-11-10T18:28:38.049Z,65.40
2018-11-10T18:31:07.235Z,65.40
2018-11-10T18:33:36.854Z,65.30
2018-11-10T18:36:05.817Z,65.20
2018-11-10T18:38:34.561Z,65.40
2018-11-10T18:41:03.288Z,65.30
2018-11-10T18:43:32.021Z,65.30
2018-11-10T18:46:00.749Z,65.30
2018-11-10T18:48:29.479Z,65.30
2018-11-10T18:50:58.216Z,65.40
2018-11-10T18:53:26.956Z,65.40
2018-11-10T18:55:55.688Z,65.30
2018-11-10T18:58:24.448Z,65.40
2018-11-10T19:00:53.183Z,65.40
2018-11-10T19:03:23.913Z,65.40
2018-11-10T19:05:52.715Z,65.50
2018-11-10T19:08:22.708Z,65.50
2018-11-10T19:10:51.444Z,65.50
2018-11-10T19:13:20.172Z,65.50
2018-11-10T19:15:48.952Z,65.40
2018-11-10T19:18:17.676Z,65.40
2018-11-10T19:20:46.401Z,65.30
2018-11-10T19:23:15.124Z,65.30
2018-11-10T19:25:43.860Z,65.30
2018-11-10T19:28:12.589Z,65.20
2018-11-10T19:30:41.312Z,65.30
2018-11-10T19:33:10.044Z,65.20
2018-11-10T19:35:38.778Z,65.90
2018-11-10T19:38:07.492Z,65.00
2018-11-10T19:40:36.238Z,65.00
2018-11-10T19:43:05.001Z,65.30
2018-11-10T19:45:33.728Z,65.50
2018-11-10T19:48:02.456Z,65.80
2018-11-10T19:50:31.297Z,66.10
2018-11-10T19:52:59.940Z,66.20
2018-11-10T19:55:28.676Z,66.40
2018-11-10T19:57:57.421Z,66.60
2018-11-10T20:00:26.152Z,66.90
2018-11-10T20:02:54.893Z,67.00
2018-11-10T20:05:23.622Z,67.60
2018-11-10T20:07:52.362Z,68.00
2018-11-10T20:10:21.084Z,68.10
2018-11-10T20:12:49.811Z,68.20
2018-11-10T20:15:18.776Z,68.30
2018-11-10T20:17:47.541Z,68.50
2018-11-10T20:20:17.589Z,68.60
2018-11-10T20:22:46.350Z,68.90
2018-11-10T20:25:16.596Z,68.90
2018-11-10T20:27:45.320Z,68.90
2018-11-10T20:30:17.339Z,69.00
2018-11-10T20:32:46.206Z,69.10
2018-11-10T20:35:15.034Z,69.20
2018-11-10T20:37:44.432Z,69.20
2018-11-10T20:40:14.144Z,69.30
2018-11-10T20:42:43.141Z,69.30
2018-11-10T20:45:14.112Z,69.40
2018-11-10T20:47:43.073Z,69.30
2018-11-10T20:50:12.268Z,69.40
2018-11-10T20:52:41.000Z,69.40
2018-11-10T20:55:10.571Z,69.40
2018-11-10T20:57:39.470Z,69.20
2018-11-10T21:00:10.327Z,69.40
2018-11-10T21:02:39.696Z,69.40
2018-11-10T21:05:09.712Z,69.40
2018-11-10T21:07:38.502Z,69.30
2018-11-10T21:10:09.439Z,69.30
2018-11-10T21:12:38.191Z,69.40
2018-11-10T21:15:07.421Z,69.50
2018-11-10T21:17:36.308Z,69.50
2018-11-10T21:20:05.698Z,69.50
2018-11-10T21:22:34.365Z,69.50
2018-11-10T21:25:03.096Z,69.50
2018-11-10T21:27:31.816Z,69.40
2018-11-10T21:30:00.583Z,69.30
2018-11-10T21:32:29.286Z,69.30
2018-11-10T21:34:58.026Z,69.20
2018-11-10T21:37:26.740Z,69.20
2018-11-10T21:39:55.488Z,69.10
2018-11-10T21:42:24.293Z,69.10
2018-11-10T21:44:53.024Z,69.00
2018-11-10T21:47:21.747Z,69.00
2018-11-10T21:49:50.532Z,69.00
2018-11-10T21:52:19.213Z,69.00
2018-11-10T21:54:47.952Z,68.90
2018-11-10T21:57:16.827Z,68.90
2018-11-10T21:59:45.596Z,68.90
2018-11-10T22:02:14.323Z,69.00
2018-11-10T22:04:43.063Z,68.90
2018-11-10T22:07:11.789Z,69.00
2018-11-10T22:09:40.559Z,68.80
2018-11-10T22:12:09.247Z,68.80
2018-11-10T22:14:37.963Z,68.90
2018-11-10T22:17:06.721Z,68.90
2018-11-10T22:19:35.453Z,68.80
2018-11-10T22:22:04.351Z,68.80
2018-11-10T22:24:33.086Z,68.70
2018-11-10T22:27:01.939Z,68.60
2018-11-10T22:29:30.618Z,68.60
2018-11-10T22:31:59.336Z,68.50
2018-11-10T22:34:28.136Z,68.60
2018-11-10T22:36:56.868Z,68.60
2018-11-10T22:39:25.606Z,68.50
2018-11-10T22:41:54.330Z,68.60
2018-11-10T22:44:23.054Z,68.50
2018-11-10T22:46:51.775Z,68.80
2018-11-10T22:49:20.496Z,68.50
2018-11-10T22:51:49.232Z,68.40
2018-11-10T22:54:17.951Z,68.50
2018-11-10T22:56:46.746Z,68.50
2018-11-10T22:59:15.584Z,68.50
2018-11-10T23:01:44.308Z,68.40
2018-11-10T23:04:13.048Z,68.30
2018-11-10T23:06:41.789Z,68.40
2018-11-10T23:09:10.704Z,68.40
2018-11-10T23:11:39.440Z,68.30
2018-11-10T23:14:08.160Z,68.30
2018-11-10T23:16:36.883Z,68.30
2018-11-10T23:19:05.983Z,68.40
2018-11-10T23:21:34.728Z,68.20
2018-11-10T23:24:03.453Z,68.20
2018-11-10T23:26:32.190Z,68.10
2018-11-10T23:29:00.900Z,68.10
2018-11-10T23:31:29.705Z,68.20
2018-11-10T23:33:59.186Z,68.20
2018-11-10T23:36:27.912Z,68.30
2018-11-10T23:38:56.632Z,68.30
2018-11-10T23:41:25.365Z,68.30
2018-11-10T23:43:54.092Z,68.40
2018-11-10T23:46:22.824Z,68.30
2018-11-10T23:48:51.544Z,68.10
2018-11-10T23:51:20.322Z,68.20
2018-11-10T23:53:49.090Z,68.30
2018-11-10T23:56:17.763Z,68.20
2018-11-10T23:58:46.527Z,68.10
